sensor_id;sensor_type;location;lat;lon;timestamp;pressure;altitude;pressure_sealevel;temperature;humidity
25232;BME280;13176;51.140;6.290;2024-01-15T00:00:11;99733.81;;;3.82;97.99
25232;BME280;13176;51.140;6.290;2024-01-15T00:02:44;99596.41;;;3.39;95.94
25232;BME280;13176;51.140;6.290;2024-01-15T00:05:13;99745.81;;;3.87;99.03
25232;BME280;13176;51.140;6.290;2024-01-15T00:07:44;99411.38;;;1.93;98.98
25232;BME280;13176;51.140;6.290;2024-01-15T00:10:14;99469.66;;;2.21;99.46
25232;BME280;13176;51.140;6.290;2024-01-15T00:12:48;99504.81;;;2.37;99.75
25232;BME280;13176;51.140;6.290;2024-01-15T00:15:20;99403.66;;;2.17;98.65
25232;BME280;13176;51.140;6.290;2024-01-15T00:18:00;99726.81;;;4.03;98.95
25232;BME280;13176;51.140;6.290;2024-01-15T00:20:27;99382.25;;;2.18;97.77
25232;BME280;13176;51.140;6.290;2024-01-15T00:23:20;99427.63;;;2.22;98.23
25232;BME280;13176;51.140;6.290;2024-01-15T00:26:04;99361.69;;;2.03;98.28
25232;BME280;13176;51.140;6.290;2024-01-15T00:28:44;99314.63;;;1.37;100.00
25232;BME280;13176;51.140;6.290;2024-01-15T00:31:27;99572.38;;;3.37;97.85
25232;BME280;13176;51.140;6.290;2024-01-15T00:34:13;99723.34;;;4.13;97.63
25232;BME280;13176;51.140;6.290;2024-01-15T00:36:59;99423.34;;;2.36;99.30
25232;BME280;13176;51.140;6.290;2024-01-15T00:39:32;99369.44;;;1.79;100.00
25232;BME280;13176;51.140;6.290;2024-01-15T00:42:13;99473.06;;;2.32;100.00
25232;BME280;13176;51.140;6.290;2024-01-15T00:44:43;99324.03;;;1.72;100.00
25232;BME280;13176;51.140;6.290;2024-01-15T00:47:30;99690.75;;;4.00;100.00
25232;BME280;13176;51.140;6.290;2024-01-15T00:50:06;99513.34;;;2.66;100.00
25232;BME280;13176;51.140;6.290;2024-01-15T00:52:33;99704.63;;;3.60;100.00
25232;BME280;13176;51.140;6.290;2024-01-15T00:55:21;99474.72;;;2.75;99.38
25232;BME280;13176;51.140;6.290;2024-01-15T00:57:53;99695.84;;;4.06;99.86
25232;BME280;13176;51.140;6.290;2024-01-15T01:00:20;99395.97;;;2.05;100.00
25232;BME280;13176;51.140;6.290;2024-01-15T01:03:02;99497.72;;;3.23;98.34
25232;BME280;13176;51.140;6.290;2024-01-15T01:05:42;99344.56;;;1.87;100.00
25232;BME280;13176;51.140;6.290;2024-01-15T01:08:25;99335.16;;;1.80;100.00
25232;BME280;13176;51.140;6.290;2024-01-15T01:11:07;99361.63;;;2.27;99.27
25232;BME280;13176;51.140;6.290;2024-01-15T01:13:50;99291.41;;;2.01;98.52
25232;BME280;13176;51.140;6.290;2024-01-15T01:16:31;99343.66;;;2.17;98.70
25232;BME280;13176;51.140;6.290;2024-01-15T01:19:14;99562.06;;;3.34;99.31
25232;BME280;13176;51.140;6.290;2024-01-15T01:21:48;99301.75;;;1.77;100.00
25232;BME280;13176;51.140;6.290;2024-01-15T01:24:21;99525.91;;;3.54;98.73
25232;BME280;13176;51.140;6.290;2024-01-15T01:26:54;99532.97;;;3.15;100.00
25232;BME280;13176;51.140;6.290;2024-01-15T01:29:36;99470.41;;;2.77;100.00
25232;BME280;13176;51.140;6.290;2024-01-15T01:32:09;99541.47;;;3.29;100.00
25232;BME280;13176;51.140;6.290;2024-01-15T01:34:46;99554.44;;;3.09;100.00
25232;BME280;13176;51.140;6.290;2024-01-15T01:37:22;99533.81;;;3.17;100.00
25232;BME280;13176;51.140;6.290;2024-01-15T01:40:03;99508.97;;;2.92;100.00
25232;BME280;13176;51.140;6.290;2024-01-15T01:42:33;99335.94;;;2.15;100.00
25232;BME280;13176;51.140;6.290;2024-01-15T01:45:07;99665.75;;;4.13;100.00
25232;BME280;13176;51.140;6.290;2024-01-15T01:47:41;99329.88;;;2.28;99.53
25232;BME280;13176;51.140;6.290;2024-01-15T01:50:14;99334.31;;;1.78;100.00
25232;BME280;13176;51.140;6.290;2024-01-15T01:52:48;99411.25;;;2.62;100.00
25232;BME280;13176;51.140;6.290;2024-01-15T01:55:27;99464.28;;;3.11;100.00
25232;BME280;13176;51.140;6.290;2024-01-15T01:58:09;99328.16;;;2.30;99.33
25232;BME280;13176;51.140;6.290;2024-01-15T02:00:44;99353.94;;;2.14;100.00
25232;BME280;13176;51.140;6.290;2024-01-15T02:03:44;99341.13;;;1.88;100.00
25232;BME280;13176;51.140;6.290;2024-01-15T02:06:18;99342.84;;;1.98;100.00
25232;BME280;13176;51.140;6.290;2024-01-15T02:09:04;99385.59;;;2.32;100.00
25232;BME280;13176;51.140;6.290;2024-01-15T02:12:10;99330.00;;;1.97;100.00
25232;BME280;13176;51.140;6.290;2024-01-15T02:15:16;99342.84;;;1.95;100.00
25232;BME280;13176;51.140;6.290;2024-01-15T02:18:17;99495.97;;;3.26;99.41
25232;BME280;13176;51.140;6.290;2024-01-15T02:20:57;99384.75;;;2.36;100.00
25232;BME280;13176;51.140;6.290;2024-01-15T02:24:13;99376.16;;;2.40;99.64
25232;BME280;13176;51.140;6.290;2024-01-15T02:27:24;99338.41;;;2.37;99.03
25232;BME280;13176;51.140;6.290;2024-01-15T02:30:16;99689.91;;;3.98;100.00
25232;BME280;13176;51.140;6.290;2024-01-15T02:33:41;99541.38;;;3.55;99.61
25232;BME280;13176;51.140;6.290;2024-01-15T02:36:51;99490.13;;;2.87;100.00
25232;BME280;13176;51.140;6.290;2024-01-15T02:39:43;99571.53;;;3.37;100.00
25232;BME280;13176;51.140;6.290;2024-01-15T02:49:18;99361.63;;;2.24;100.00
25232;BME280;13176;51.140;6.290;2024-01-15T02:52:37;99630.69;;;3.65;100.00
25232;BME280;13176;51.140;6.290;2024-01-15T02:55:37;99354.81;;;2.11;100.00
25232;BME280;13176;51.140;6.290;2024-01-15T02:59:07;99335.06;;;2.23;99.56
25232;BME280;13176;51.140;6.290;2024-01-15T03:02:18;99371.03;;;2.35;100.00
25232;BME280;13176;51.140;6.290;2024-01-15T03:05:32;99337.66;;;2.16;100.00
25232;BME280;13176;51.140;6.290;2024-01-15T03:08:34;99349.69;;;1.93;100.00
25232;BME280;13176;51.140;6.290;2024-01-15T03:11:08;99341.88;;;2.29;100.00
25232;BME280;13176;51.140;6.290;2024-01-15T03:13:52;99327.28;;;2.40;99.22
25232;BME280;13176;51.140;6.290;2024-01-15T03:16:58;99394.06;;;2.70;99.51
25232;BME280;13176;51.140;6.290;2024-01-15T03:22:45;99672.63;;;4.09;100.00
25232;BME280;13176;51.140;6.290;2024-01-15T03:25:13;99364.22;;;2.17;100.00
25232;BME280;13176;51.140;6.290;2024-01-15T03:34:32;99335.06;;;2.26;100.00
25232;BME280;13176;51.140;6.290;2024-01-15T03:37:36;99481.38;;;3.22;100.00
25232;BME280;13176;51.140;6.290;2024-01-15T03:40:31;99341.03;;;2.27;100.00
25232;BME280;13176;51.140;6.290;2024-01-15T03:43:13;99700.94;;;4.24;100.00
25232;BME280;13176;51.140;6.290;2024-01-15T03:46:07;99368.34;;;2.67;99.39
25232;BME280;13176;51.140;6.290;2024-01-15T03:48:45;99269.94;;;2.13;99.17
25232;BME280;13176;51.140;6.290;2024-01-15T03:51:25;99545.53;;;3.82;98.79
25232;BME280;13176;51.140;6.290;2024-01-15T03:53:56;99313.63;;;2.23;99.70
25232;BME280;13176;51.140;6.290;2024-01-15T03:56:52;99654.31;;;4.51;99.18
25232;BME280;13176;51.140;6.290;2024-01-15T03:59:49;99349.53;;;2.53;99.15
25232;BME280;13176;51.140;6.290;2024-01-15T04:02:34;99532.81;;;3.47;100.00
25232;BME280;13176;51.140;6.290;2024-01-15T04:05:06;99366.75;;;2.24;100.00
25232;BME280;13176;51.140;6.290;2024-01-15T04:07:35;99496.03;;;3.13;100.00
25232;BME280;13176;51.140;6.290;2024-01-15T04:10:05;99324.75;;;2.35;100.00
25232;BME280;13176;51.140;6.290;2024-01-15T04:15:59;99554.88;;;3.99;99.58
25232;BME280;13176;51.140;6.290;2024-01-15T04:18:34;99508.72;;;3.57;100.00
25232;BME280;13176;51.140;6.290;2024-01-15T04:21:05;99330.69;;;2.48;100.00
25232;BME280;13176;51.140;6.290;2024-01-15T04:23:49;99576.50;;;3.79;100.00
25232;BME280;13176;51.140;6.290;2024-01-15T04:26:18;99345.97;;;2.81;99.93
25232;BME280;13176;51.140;6.290;2024-01-15T04:28:45;99560.97;;;3.86;100.00
25232;BME280;13176;51.140;6.290;2024-01-15T04:31:23;99322.97;;;2.40;100.00
25232;BME280;13176;51.140;6.290;2024-01-15T04:33:54;99517.28;;;3.62;100.00
25232;BME280;13176;51.140;6.290;2024-01-15T04:36:21;99489.75;;;3.64;99.42
25232;BME280;13176;51.140;6.290;2024-01-15T04:38:47;99536.94;;;3.80;100.00
25232;BME280;13176;51.140;6.290;2024-01-15T04:41:14;99435.06;;;3.18;99.80
25232;BME280;13176;51.140;6.290;2024-01-15T04:43:42;99431.63;;;3.13;100.00
25232;BME280;13176;51.140;6.290;2024-01-15T04:46:10;99488.06;;;3.63;100.00
25232;BME280;13176;51.140;6.290;2024-01-15T04:48:37;99460.69;;;3.35;100.00
25232;BME280;13176;51.140;6.290;2024-01-15T04:51:05;99402.44;;;3.17;100.00
25232;BME280;13176;51.140;6.290;2024-01-15T04:53:34;99430.69;;;3.30;99.77
25232;BME280;13176;51.140;6.290;2024-01-15T04:56:01;99560.06;;;3.96;99.33
25232;BME280;13176;51.140;6.290;2024-01-15T04:58:28;99554.75;;;4.17;99.01
25232;BME280;13176;51.140;6.290;2024-01-15T05:01:01;99503.38;;;3.84;99.61
25232;BME280;13176;51.140;6.290;2024-01-15T05:03:28;99628.53;;;4.42;99.39
25232;BME280;13176;51.140;6.290;2024-01-15T05:05:56;99452.22;;;3.22;100.00
25232;BME280;13176;51.140;6.290;2024-01-15T05:08:22;99489.69;;;3.73;99.25
25232;BME280;13176;51.140;6.290;2024-01-15T05:10:49;99461.63;;;3.27;100.00
25232;BME280;13176;51.140;6.290;2024-01-15T05:13:15;99590.16;;;3.90;100.00
25232;BME280;13176;51.140;6.290;2024-01-15T05:15:42;99270.72;;;2.28;100.00
25232;BME280;13176;51.140;6.290;2024-01-15T05:18:09;99561.63;;;4.18;99.84
25232;BME280;13176;51.140;6.290;2024-01-15T05:20:38;99402.38;;;3.26;99.81
25232;BME280;13176;51.140;6.290;2024-01-15T05:23:04;99443.44;;;3.52;98.88
25232;BME280;13176;51.140;6.290;2024-01-15T05:25:31;99446.97;;;3.31;99.94
25232;BME280;13176;51.140;6.290;2024-01-15T05:27:58;99404.25;;;2.94;100.00
25232;BME280;13176;51.140;6.290;2024-01-15T05:30:24;99571.16;;;4.06;100.00
25232;BME280;13176;51.140;6.290;2024-01-15T05:32:51;99607.78;;;4.60;98.96
25232;BME280;13176;51.140;6.290;2024-01-15T05:35:18;99283.47;;;2.56;100.00
25232;BME280;13176;51.140;6.290;2024-01-15T05:37:49;99434.72;;;3.65;97.60
25232;BME280;13176;51.140;6.290;2024-01-15T05:40:18;99257.09;;;2.14;100.00
25232;BME280;13176;51.140;6.290;2024-01-15T05:42:48;99489.81;;;3.55;100.00
25232;BME280;13176;51.140;6.290;2024-01-15T05:45:14;99583.78;;;4.46;100.00
25232;BME280;13176;51.140;6.290;2024-01-15T05:47:41;99251.94;;;2.16;100.00
25232;BME280;13176;51.140;6.290;2024-01-15T05:50:08;99530.72;;;4.06;99.25
25232;BME280;13176;51.140;6.290;2024-01-15T05:52:36;99421.16;;;3.39;100.00
25232;BME280;13176;51.140;6.290;2024-01-15T05:55:04;99371.63;;;2.93;100.00
25232;BME280;13176;51.140;6.290;2024-01-15T05:57:31;99446.69;;;3.78;98.96
25232;BME280;13176;51.140;6.290;2024-01-15T06:00:01;99352.69;;;3.07;98.59
25232;BME280;13176;51.140;6.290;2024-01-15T06:02:29;99400.59;;;3.31;98.93
25232;BME280;13176;51.140;6.290;2024-01-15T06:04:56;99329.53;;;3.00;99.03
25232;BME280;13176;51.140;6.290;2024-01-15T06:07:26;99265.34;;;2.76;99.23
25232;BME280;13176;51.140;6.290;2024-01-15T06:09:52;99486.09;;;3.98;99.20
25232;BME280;13176;51.140;6.290;2024-01-15T06:12:19;99381.88;;;3.08;100.00
25232;BME280;13176;51.140;6.290;2024-01-15T06:14:46;99432.97;;;3.70;99.93
25232;BME280;13176;51.140;6.290;2024-01-15T06:17:15;99476.91;;;3.61;100.00
25232;BME280;13176;51.140;6.290;2024-01-15T06:19:41;99348.34;;;3.14;100.00
25232;BME280;13176;51.140;6.290;2024-01-15T06:22:08;99556.44;;;4.21;100.00
25232;BME280;13176;51.140;6.290;2024-01-15T06:24:38;99556.41;;;4.24;99.63
25232;BME280;13176;51.140;6.290;2024-01-15T06:27:05;99385.31;;;3.05;100.00
25232;BME280;13176;51.140;6.290;2024-01-15T06:29:31;99371.53;;;3.14;100.00
25232;BME280;13176;51.140;6.290;2024-01-15T06:31:58;99217.53;;;2.36;100.00
25232;BME280;13176;51.140;6.290;2024-01-15T06:34:27;99268.63;;;2.96;99.20
25232;BME280;13176;51.140;6.290;2024-01-15T06:36:55;99476.50;;;4.14;98.28
25232;BME280;13176;51.140;6.290;2024-01-15T06:39:22;99416.75;;;3.58;99.50
25232;BME280;13176;51.140;6.290;2024-01-15T06:41:51;99224.22;;;2.61;98.84
25232;BME280;13176;51.140;6.290;2024-01-15T06:44:19;99419.34;;;3.59;99.55
25232;BME280;13176;51.140;6.290;2024-01-15T06:46:48;99378.13;;;3.53;98.99
25232;BME280;13176;51.140;6.290;2024-01-15T06:49:15;99400.56;;;3.39;100.00
25232;BME280;13176;51.140;6.290;2024-01-15T06:51:42;99393.88;;;3.09;100.00
25232;BME280;13176;51.140;6.290;2024-01-15T06:54:11;99272.25;;;2.68;100.00
25232;BME280;13176;51.140;6.290;2024-01-15T06:56:39;99419.44;;;3.44;100.00
25232;BME280;13176;51.140;6.290;2024-01-15T06:59:06;99432.81;;;3.94;99.81
25232;BME280;13176;51.140;6.290;2024-01-15T07:01:33;99475.72;;;4.01;99.28
25232;BME280;13176;51.140;6.290;2024-01-15T07:04:02;99511.66;;;4.28;99.70
25232;BME280;13176;51.140;6.290;2024-01-15T07:06:29;99462.09;;;3.87;100.00
25232;BME280;13176;51.140;6.290;2024-01-15T07:08:57;99366.28;;;3.27;100.00
25232;BME280;13176;51.140;6.290;2024-01-15T07:11:24;99421.97;;;3.46;100.00
25232;BME280;13176;51.140;6.290;2024-01-15T07:14:01;99411.00;;;3.22;100.00
25232;BME280;13176;51.140;6.290;2024-01-15T07:16:27;99538.53;;;3.99;100.00
25232;BME280;13176;51.140;6.290;2024-01-15T07:19:18;99238.16;;;2.24;100.00
25232;BME280;13176;51.140;6.290;2024-01-15T07:21:48;99518.63;;;4.17;100.00
25232;BME280;13176;51.140;6.290;2024-01-15T07:24:26;99175.78;;;1.83;100.00
25232;BME280;13176;51.140;6.290;2024-01-15T07:26:53;99180.66;;;2.37;100.00
25232;BME280;13176;51.140;6.290;2024-01-15T07:29:25;99235.41;;;2.57;100.00
25232;BME280;13176;51.140;6.290;2024-01-15T07:31:51;99437.88;;;4.03;98.82
25232;BME280;13176;51.140;6.290;2024-01-15T07:34:19;99441.66;;;3.60;99.39
25232;BME280;13176;51.140;6.290;2024-01-15T07:36:48;99304.88;;;2.57;100.00
25232;BME280;13176;51.140;6.290;2024-01-15T07:39:20;99325.34;;;2.87;100.00
25232;BME280;13176;51.140;6.290;2024-01-15T07:41:51;99316.63;;;3.09;99.37
25232;BME280;13176;51.140;6.290;2024-01-15T07:44:23;99227.75;;;2.51;99.47
25232;BME280;13176;51.140;6.290;2024-01-15T07:46:54;99248.38;;;2.45;99.37
25232;BME280;13176;51.140;6.290;2024-01-15T07:49:26;99234.78;;;2.16;100.00
25232;BME280;13176;51.140;6.290;2024-01-15T07:51:58;99364.72;;;3.01;99.98
25232;BME280;13176;51.140;6.290;2024-01-15T07:54:25;99469.91;;;3.78;99.95
25232;BME280;13176;51.140;6.290;2024-01-15T08:03:12;99242.25;;;2.62;100.00
25232;BME280;13176;51.140;6.290;2024-01-15T08:05:44;99417.53;;;3.67;100.00
25232;BME280;13176;51.140;6.290;2024-01-15T08:08:21;99198.81;;;2.13;100.00
25232;BME280;13176;51.140;6.290;2024-01-15T08:10:49;99372.13;;;3.54;99.55
25232;BME280;13176;51.140;6.290;2024-01-15T08:13:15;99210.66;;;2.41;99.69
25232;BME280;13176;51.140;6.290;2024-01-15T08:15:54;99162.81;;;2.06;100.00
25232;BME280;13176;51.140;6.290;2024-01-15T08:18:20;99355.38;;;2.91;100.00
25232;BME280;13176;51.140;6.290;2024-01-15T08:20:50;99210.81;;;2.11;100.00
25232;BME280;13176;51.140;6.290;2024-01-15T08:23:30;99413.53;;;3.28;100.00
25232;BME280;13176;51.140;6.290;2024-01-15T08:25:57;99260.34;;;2.49;100.00
25232;BME280;13176;51.140;6.290;2024-01-15T08:28:24;99473.44;;;3.61;100.00
25232;BME280;13176;51.140;6.290;2024-01-15T08:30:51;99409.16;;;3.35;100.00
25232;BME280;13176;51.140;6.290;2024-01-15T08:33:18;99251.03;;;2.25;100.00
25232;BME280;13176;51.140;6.290;2024-01-15T08:35:48;99452.91;;;3.46;100.00
25232;BME280;13176;51.140;6.290;2024-01-15T08:38:15;99442.50;;;3.61;100.00
25232;BME280;13176;51.140;6.290;2024-01-15T08:40:42;99425.56;;;3.21;100.00
25232;BME280;13176;51.140;6.290;2024-01-15T08:43:10;99340.69;;;3.02;100.00
25232;BME280;13176;51.140;6.290;2024-01-15T08:45:36;99552.91;;;4.33;99.65
25232;BME280;13176;51.140;6.290;2024-01-15T08:48:03;99430.69;;;3.30;100.00
25232;BME280;13176;51.140;6.290;2024-01-15T08:50:31;99586.66;;;4.01;100.00
25232;BME280;13176;51.140;6.290;2024-01-15T08:53:00;99362.19;;;2.99;100.00
25232;BME280;13176;51.140;6.290;2024-01-15T08:55:27;99431.69;;;2.98;100.00
25232;BME280;13176;51.140;6.290;2024-01-15T08:57:53;99366.63;;;2.63;100.00
25232;BME280;13176;51.140;6.290;2024-01-15T09:00:20;99259.59;;;2.27;100.00
25232;BME280;13176;51.140;6.290;2024-01-15T09:02:58;99369.25;;;2.54;100.00
25232;BME280;13176;51.140;6.290;2024-01-15T09:09:09;99397.34;;;2.99;100.00
25232;BME280;13176;51.140;6.290;2024-01-15T09:12:15;99577.06;;;4.20;100.00
25232;BME280;13176;51.140;6.290;2024-01-15T09:37:52;99418.81;;;3.05;100.00
25232;BME280;13176;51.140;6.290;2024-01-15T09:40:39;99374.16;;;3.09;99.55
25232;BME280;13176;51.140;6.290;2024-01-15T09:43:09;99307.53;;;2.48;100.00
25232;BME280;13176;51.140;6.290;2024-01-15T09:45:42;99393.91;;;3.03;100.00
25232;BME280;13176;51.140;6.290;2024-01-15T09:48:09;99584.06;;;4.04;100.00
25232;BME280;13176;51.140;6.290;2024-01-15T09:50:36;99465.59;;;3.80;99.15
25232;BME280;13176;51.140;6.290;2024-01-15T09:53:05;99309.97;;;2.75;99.94
25232;BME280;13176;51.140;6.290;2024-01-15T09:55:34;99392.03;;;3.29;99.01
25232;BME280;13176;51.140;6.290;2024-01-15T09:58:02;99449.53;;;3.36;100.00
25232;BME280;13176;51.140;6.290;2024-01-15T10:00:29;99494.88;;;3.70;99.80
25232;BME280;13176;51.140;6.290;2024-01-15T10:02:58;99355.41;;;2.82;99.82
25232;BME280;13176;51.140;6.290;2024-01-15T10:05:27;99479.38;;;3.76;99.00
25232;BME280;13176;51.140;6.290;2024-01-15T10:08:00;99431.72;;;2.95;100.00
25232;BME280;13176;51.140;6.290;2024-01-15T10:10:30;99625.28;;;4.16;100.00
25232;BME280;13176;51.140;6.290;2024-01-15T10:13:01;99318.75;;;2.20;100.00
25232;BME280;13176;51.140;6.290;2024-01-15T10:22:20;99339.00;;;2.99;98.49
25232;BME280;13176;51.140;6.290;2024-01-15T10:24:53;99500.81;;;3.84;98.97
25232;BME280;13176;51.140;6.290;2024-01-15T10:27:21;99616.72;;;4.08;100.00
25232;BME280;13176;51.140;6.290;2024-01-15T10:29:50;99313.50;;;2.53;99.96
25232;BME280;13176;51.140;6.290;2024-01-15T10:32:16;99532.81;;;3.47;100.00
25232;BME280;13176;51.140;6.290;2024-01-15T10:34:43;99513.84;;;3.60;100.00
25232;BME280;13176;51.140;6.290;2024-01-15T10:37:14;99506.97;;;3.62;99.83
25232;BME280;13176;51.140;6.290;2024-01-15T10:39:43;99290.28;;;2.62;99.41
25232;BME280;13176;51.140;6.290;2024-01-15T10:42:12;99566.72;;;4.27;100.00
25232;BME280;13176;51.140;6.290;2024-01-15T10:44:41;99361.09;;;3.32;98.79
25232;BME280;13176;51.140;6.290;2024-01-15T10:52:35;99499.03;;;3.88;100.00
25232;BME280;13176;51.140;6.290;2024-01-15T10:55:13;99588.22;;;4.25;100.00
25232;BME280;13176;51.140;6.290;2024-01-15T10:57:49;99515.63;;;3.52;100.00
25232;BME280;13176;51.140;6.290;2024-01-15T11:10:43;99583.59;;;4.70;98.21
25232;BME280;13176;51.140;6.290;2024-01-15T11:17:32;99594.13;;;4.43;98.69
25232;BME280;13176;51.140;6.290;2024-01-15T11:55:46;99564.97;;;5.22;93.84
25232;BME280;13176;51.140;6.290;2024-01-15T11:58:17;99419.94;;;3.90;94.83
25232;BME280;13176;51.140;6.290;2024-01-15T12:00:48;99495.75;;;4.71;94.15
25232;BME280;13176;51.140;6.290;2024-01-15T12:03:16;99314.81;;;3.20;95.20
25232;BME280;13176;51.140;6.290;2024-01-15T12:05:45;99379.72;;;3.69;94.51
25232;BME280;13176;51.140;6.290;2024-01-15T12:08:12;99372.59;;;3.98;93.78
25232;BME280;13176;51.140;6.290;2024-01-15T12:10:41;99288.38;;;2.95;95.94
25232;BME280;13176;51.140;6.290;2024-01-15T12:13:14;99293.38;;;3.15;96.52
25232;BME280;13176;51.140;6.290;2024-01-15T12:15:45;99428.66;;;3.75;95.87
25232;BME280;13176;51.140;6.290;2024-01-15T12:18:17;99597.13;;;4.96;96.29
25232;BME280;13176;51.140;6.290;2024-01-15T12:20:58;99300.91;;;3.38;95.40
25232;BME280;13176;51.140;6.290;2024-01-15T12:24:09;99285.88;;;2.85;96.29
25232;BME280;13176;51.140;6.290;2024-01-15T12:26:37;99491.00;;;4.31;95.56
25232;BME280;13176;51.140;6.290;2024-01-15T12:29:09;99294.81;;;3.50;94.33
25232;BME280;13176;51.140;6.290;2024-01-15T12:31:36;99427.63;;;4.00;95.19
25232;BME280;13176;51.140;6.290;2024-01-15T12:34:07;99303.06;;;2.83;96.80
25232;BME280;13176;51.140;6.290;2024-01-15T12:36:40;99403.84;;;3.62;97.21
25232;BME280;13176;51.140;6.290;2024-01-15T12:39:11;99330.25;;;3.24;95.39
25232;BME280;13176;51.140;6.290;2024-01-15T12:41:38;99451.38;;;4.35;94.21
25232;BME280;13176;51.140;6.290;2024-01-15T12:44:05;99297.69;;;3.16;95.28
25232;BME280;13176;51.140;6.290;2024-01-15T12:46:46;99386.72;;;3.52;95.46
25232;BME280;13176;51.140;6.290;2024-01-15T12:49:13;99423.53;;;3.74;96.28
25232;BME280;13176;51.140;6.290;2024-01-15T12:51:52;99466.59;;;3.57;96.82
25232;BME280;13176;51.140;6.290;2024-01-15T12:54:18;99301.91;;;3.21;95.56
25232;BME280;13176;51.140;6.290;2024-01-15T12:56:45;99397.13;;;3.37;96.95
25232;BME280;13176;51.140;6.290;2024-01-15T12:59:15;99319.34;;;2.83;97.51
25232;BME280;13176;51.140;6.290;2024-01-15T13:01:45;99520.50;;;3.97;97.70
25232;BME280;13176;51.140;6.290;2024-01-15T13:04:24;99521.09;;;4.28;97.00
25232;BME280;13176;51.140;6.290;2024-01-15T13:06:54;99440.72;;;3.75;97.07
25232;BME280;13176;51.140;6.290;2024-01-15T13:09:22;99303.72;;;3.09;96.58
25232;BME280;13176;51.140;6.290;2024-01-15T13:11:49;99381.81;;;3.17;96.80
25232;BME280;13176;51.140;6.290;2024-01-15T13:14:24;99543.53;;;4.21;98.59
25232;BME280;13176;51.140;6.290;2024-01-15T13:16:51;99332.09;;;3.03;96.17
25232;BME280;13176;51.140;6.290;2024-01-15T13:19:18;99346.44;;;3.41;95.19
25232;BME280;13176;51.140;6.290;2024-01-15T13:21:45;99527.09;;;4.34;96.11
25232;BME280;13176;51.140;6.290;2024-01-15T13:24:15;99379.81;;;3.57;95.66
25232;BME280;13176;51.140;6.290;2024-01-15T13:26:48;99500.38;;;4.38;95.45
25232;BME280;13176;51.140;6.290;2024-01-15T13:29:15;99368.78;;;3.39;95.70
25232;BME280;13176;51.140;6.290;2024-01-15T13:31:50;99477.44;;;4.04;95.08
25232;BME280;13176;51.140;6.290;2024-01-15T13:34:17;99444.03;;;3.90;94.40
25232;BME280;13176;51.140;6.290;2024-01-15T13:36:43;99605.19;;;4.58;95.72
25232;BME280;13176;51.140;6.290;2024-01-15T13:39:10;99420.91;;;3.75;95.67
25232;BME280;13176;51.140;6.290;2024-01-15T13:41:37;99441.31;;;4.07;93.75
25232;BME280;13176;51.140;6.290;2024-01-15T13:44:04;99502.63;;;3.69;96.87
25232;BME280;13176;51.140;6.290;2024-01-15T13:46:30;99452.09;;;3.42;96.59
25232;BME280;13176;51.140;6.290;2024-01-15T13:48:57;99354.66;;;2.56;98.62
25232;BME280;13176;51.140;6.290;2024-01-15T13:51:24;99567.16;;;3.58;100.00
25232;BME280;13176;51.140;6.290;2024-01-15T13:53:53;99467.66;;;3.22;99.47
25232;BME280;13176;51.140;6.290;2024-01-15T13:56:19;99496.00;;;3.25;99.59
25232;BME280;13176;51.140;6.290;2024-01-15T13:58:47;99618.38;;;4.18;97.85
25232;BME280;13176;51.140;6.290;2024-01-15T14:01:18;99536.22;;;3.58;98.94
25232;BME280;13176;51.140;6.290;2024-01-15T14:03:45;99523.34;;;3.49;99.59
25232;BME280;13176;51.140;6.290;2024-01-15T14:06:11;99588.34;;;4.05;98.69
25232;BME280;13176;51.140;6.290;2024-01-15T14:08:38;99592.91;;;3.61;99.52
25232;BME280;13176;51.140;6.290;2024-01-15T14:11:05;99628.72;;;4.15;98.17
25232;BME280;13176;51.140;6.290;2024-01-15T14:13:36;99560.13;;;3.84;97.44
25232;BME280;13176;51.140;6.290;2024-01-15T14:16:03;99657.94;;;4.20;98.63
25232;BME280;13176;51.140;6.290;2024-01-15T14:18:31;99635.25;;;4.70;95.37
25232;BME280;13176;51.140;6.290;2024-01-15T14:21:00;99640.66;;;4.34;96.88
25232;BME280;13176;51.140;6.290;2024-01-15T14:23:27;99407.66;;;2.99;96.79
25232;BME280;13176;51.140;6.290;2024-01-15T14:25:56;99464.28;;;3.05;98.81
25232;BME280;13176;51.140;6.290;2024-01-15T14:28:23;99511.28;;;3.57;97.97
25232;BME280;13176;51.140;6.290;2024-01-15T14:30:52;99464.31;;;2.99;98.05
25232;BME280;13176;51.140;6.290;2024-01-15T14:33:19;99628.16;;;3.59;99.78
25232;BME280;13176;51.140;6.290;2024-01-15T14:35:48;99541.38;;;3.58;98.23
25232;BME280;13176;51.140;6.290;2024-01-15T14:38:18;99564.59;;;3.49;98.61
25232;BME280;13176;51.140;6.290;2024-01-15T14:40:50;99714.59;;;4.44;98.35
25232;BME280;13176;51.140;6.290;2024-01-15T14:43:17;99752.47;;;4.39;99.14
25232;BME280;13176;51.140;6.290;2024-01-15T14:45:48;99517.34;;;3.47;97.28
25232;BME280;13176;51.140;6.290;2024-01-15T14:48:15;99539.66;;;3.57;97.54
25232;BME280;13176;51.140;6.290;2024-01-15T14:50:45;99449.81;;;2.74;98.07
25232;BME280;13176;51.140;6.290;2024-01-15T14:53:12;99683.78;;;4.14;97.93
25232;BME280;13176;51.140;6.290;2024-01-15T14:55:38;99433.53;;;2.75;97.48
25232;BME280;13176;51.140;6.290;2024-01-15T14:58:28;99749.00;;;4.53;98.45
25232;BME280;13176;51.140;6.290;2024-01-15T15:01:01;99414.81;;;2.09;98.94
25232;BME280;13176;51.140;6.290;2024-01-15T15:03:28;99589.56;;;3.34;99.04
25232;BME280;13176;51.140;6.290;2024-01-15T15:06:17;99757.72;;;4.20;100.00
25232;BME280;13176;51.140;6.290;2024-01-15T15:08:57;99778.25;;;4.48;97.62
25232;BME280;13176;51.140;6.290;2024-01-15T15:11:55;99596.38;;;3.48;97.48
25232;BME280;13176;51.140;6.290;2024-01-15T15:14:31;99391.59;;;2.38;96.76
25232;BME280;13176;51.140;6.290;2024-01-15T15:17:33;99622.94;;;3.73;95.68
25232;BME280;13176;51.140;6.290;2024-01-15T15:20:08;99514.13;;;2.92;96.77
25232;BME280;13176;51.140;6.290;2024-01-15T15:22:47;99480.75;;;2.63;96.51
25232;BME280;13176;51.140;6.290;2024-01-15T15:25:17;99689.16;;;3.63;97.70
25232;BME280;13176;51.140;6.290;2024-01-15T15:27:46;99664.09;;;3.95;95.90
25232;BME280;13176;51.140;6.290;2024-01-15T15:30:50;99624.00;;;2.96;99.18
25232;BME280;13176;51.140;6.290;2024-01-15T15:33:17;99553.59;;;3.07;96.69
25232;BME280;13176;51.140;6.290;2024-01-15T15:35:47;99610.91;;;3.69;95.11
25232;BME280;13176;51.140;6.290;2024-01-15T15:38:20;99473.88;;;2.67;95.58